sensor_id;sensor_type;location;lat;lon;timestamp;pressure;altitude;pressure_sealevel;temperature;humidity
10706;BME280;5404;42.656;23.336;2022-07-23T00:00:12;95070.44;;;20.51;100.00
10706;BME280;5404;42.656;23.336;2022-07-23T00:02:37;95073.41;;;20.46;100.00
10706;BME280;5404;42.656;23.336;2022-07-23T00:05:03;95064.16;;;20.32;100.00
10706;BME280;5404;42.656;23.336;2022-07-23T00:07:29;95070.28;;;20.29;100.00
10706;BME280;5404;42.656;23.336;2022-07-23T00:09:54;95073.78;;;20.29;100.00
10706;BME280;5404;42.656;23.336;2022-07-23T00:12:20;95072.88;;;20.25;100.00
10706;BME280;5404;42.656;23.336;2022-07-23T00:14:46;95072.88;;;20.25;100.00
10706;BME280;5404;42.656;23.336;2022-07-23T00:17:11;95076.97;;;20.19;100.00
10706;BME280;5404;42.656;23.336;2022-07-23T00:19:37;95079.22;;;20.02;100.00
10706;BME280;5404;42.656;23.336;2022-07-23T00:22:02;95093.75;;;19.97;100.00
10706;BME280;5404;42.656;23.336;2022-07-23T00:24:28;95087.91;;;19.95;100.00
10706;BME280;5404;42.656;23.336;2022-07-23T00:26:54;95094.50;;;19.82;100.00
10706;BME280;5404;42.656;23.336;2022-07-23T00:29:19;95095.31;;;19.83;100.00
10706;BME280;5404;42.656;23.336;2022-07-23T00:31:44;95096.06;;;19.83;100.00
10706;BME280;5404;42.656;23.336;2022-07-23T00:34:10;95097.66;;;19.84;100.00
10706;BME280;5404;42.656;23.336;2022-07-23T00:36:35;95093.25;;;19.80;100.00
10706;BME280;5404;42.656;23.336;2022-07-23T00:39:01;95092.88;;;19.93;100.00
10706;BME280;5404;42.656;23.336;2022-07-23T00:41:27;95091.09;;;19.85;100.00
10706;BME280;5404;42.656;23.336;2022-07-23T00:43:52;95089.38;;;19.93;100.00
10706;BME280;5404;42.656;23.336;2022-07-23T00:46:24;95081.47;;;20.00;100.00
10706;BME280;5404;42.656;23.336;2022-07-23T00:48:50;95087.31;;;20.02;100.00
10706;BME280;5404;42.656;23.336;2022-07-23T00:51:16;95092.81;;;20.05;100.00
10706;BME280;5404;42.656;23.336;2022-07-23T00:53:42;95097.34;;;20.01;100.00
10706;BME280;5404;42.656;23.336;2022-07-23T00:56:07;95068.97;;;19.95;100.00
10706;BME280;5404;42.656;23.336;2022-07-23T00:58:35;95091.50;;;19.99;100.00
10706;BME280;5404;42.656;23.336;2022-07-23T01:01:00;95078.47;;;19.89;100.00
10706;BME280;5404;42.656;23.336;2022-07-23T01:03:26;95081.38;;;19.96;100.00
10706;BME280;5404;42.656;23.336;2022-07-23T01:05:51;95072.03;;;19.94;100.00
10706;BME280;5404;42.656;23.336;2022-07-23T01:08:18;95063.91;;;19.94;100.00
10706;BME280;5404;42.656;23.336;2022-07-23T01:10:43;95069.22;;;19.90;100.00
10706;BME280;5404;42.656;23.336;2022-07-23T01:13:09;95075.53;;;19.94;100.00
10706;BME280;5404;42.656;23.336;2022-07-23T01:15:37;95067.84;;;19.96;100.00
10706;BME280;5404;42.656;23.336;2022-07-23T01:18:04;95062.44;;;19.96;100.00
10706;BME280;5404;42.656;23.336;2022-07-23T01:20:31;95061.66;;;19.96;100.00
10706;BME280;5404;42.656;23.336;2022-07-23T01:22:57;95053.34;;;19.89;100.00
10706;BME280;5404;42.656;23.336;2022-07-23T01:25:23;95055.72;;;20.06;100.00
10706;BME280;5404;42.656;23.336;2022-07-23T01:27:50;95062.72;;;20.07;100.00
10706;BME280;5404;42.656;23.336;2022-07-23T01:30:16;95059.22;;;20.06;100.00
10706;BME280;5404;42.656;23.336;2022-07-23T01:32:41;95057.22;;;20.03;100.00
10706;BME280;5404;42.656;23.336;2022-07-23T01:35:08;95048.91;;;19.96;100.00
10706;BME280;5404;42.656;23.336;2022-07-23T01:37:34;95055.78;;;19.94;100.00
10706;BME280;5404;42.656;23.336;2022-07-23T01:40:00;95058.50;;;19.94;100.00
10706;BME280;5404;42.656;23.336;2022-07-23T01:42:25;95061.81;;;19.87;100.00
10706;BME280;5404;42.656;23.336;2022-07-23T01:44:51;95066.88;;;19.89;100.00
10706;BME280;5404;42.656;23.336;2022-07-23T01:47:16;95065.56;;;19.83;100.00
10706;BME280;5404;42.656;23.336;2022-07-23T01:49:42;95063.63;;;19.83;100.00
10706;BME280;5404;42.656;23.336;2022-07-23T01:52:08;95059.50;;;19.73;100.00
10706;BME280;5404;42.656;23.336;2022-07-23T01:54:36;95065.06;;;19.65;100.00
10706;BME280;5404;42.656;23.336;2022-07-23T01:57:03;95068.91;;;19.64;100.00
10706;BME280;5404;42.656;23.336;2022-07-23T01:59:29;95058.16;;;19.52;100.00
10706;BME280;5404;42.656;23.336;2022-07-23T02:01:55;95058.38;;;19.47;100.00
10706;BME280;5404;42.656;23.336;2022-07-23T02:04:21;95069.53;;;19.45;100.00
10706;BME280;5404;42.656;23.336;2022-07-23T02:06:47;95069.56;;;19.33;100.00
10706;BME280;5404;42.656;23.336;2022-07-23T02:09:13;95070.13;;;19.27;100.00
10706;BME280;5404;42.656;23.336;2022-07-23T02:11:39;95062.97;;;19.19;100.00
10706;BME280;5404;42.656;23.336;2022-07-23T02:14:05;95071.28;;;19.14;100.00
10706;BME280;5404;42.656;23.336;2022-07-23T02:16:30;95079.75;;;19.12;100.00
10706;BME280;5404;42.656;23.336;2022-07-23T02:18:56;95075.81;;;19.10;100.00
10706;BME280;5404;42.656;23.336;2022-07-23T02:21:21;95081.25;;;18.86;100.00
10706;BME280;5404;42.656;23.336;2022-07-23T02:23:47;95079.69;;;18.85;100.00
10706;BME280;5404;42.656;23.336;2022-07-23T02:26:12;95077.09;;;18.76;100.00
10706;BME280;5404;42.656;23.336;2022-07-23T02:28:38;95082.81;;;18.75;100.00
10706;BME280;5404;42.656;23.336;2022-07-23T02:31:03;95080.91;;;18.75;100.00
10706;BME280;5404;42.656;23.336;2022-07-23T02:33:29;95070.00;;;18.72;100.00
10706;BME280;5404;42.656;23.336;2022-07-23T02:35:55;95077.00;;;18.73;100.00
10706;BME280;5404;42.656;23.336;2022-07-23T02:38:21;95076.66;;;18.62;100.00
10706;BME280;5404;42.656;23.336;2022-07-23T02:40:46;95079.81;;;18.64;100.00
10706;BME280;5404;42.656;23.336;2022-07-23T02:43:12;95090.72;;;18.68;100.00
10706;BME280;5404;42.656;23.336;2022-07-23T02:45:37;95089.47;;;18.65;100.00
10706;BME280;5404;42.656;23.336;2022-07-23T02:48:03;95086.19;;;18.59;100.00
10706;BME280;5404;42.656;23.336;2022-07-23T02:50:28;95101.94;;;18.70;100.00
10706;BME280;5404;42.656;23.336;2022-07-23T02:52:54;95103.53;;;18.71;100.00
10706;BME280;5404;42.656;23.336;2022-07-23T02:55:19;95090.94;;;18.63;100.00
10706;BME280;5404;42.656;23.336;2022-07-23T02:57:45;95081.13;;;18.58;100.00
10706;BME280;5404;42.656;23.336;2022-07-23T03:00:10;95107.69;;;18.68;100.00
10706;BME280;5404;42.656;23.336;2022-07-23T03:02:36;95107.31;;;18.57;100.00
10706;BME280;5404;42.656;23.336;2022-07-23T03:05:02;95113.41;;;18.54;100.00
10706;BME280;5404;42.656;23.336;2022-07-23T03:07:27;95108.59;;;18.60;100.00
10706;BME280;5404;42.656;23.336;2022-07-23T03:09:53;95101.06;;;18.53;100.00
10706;BME280;5404;42.656;23.336;2022-07-23T03:12:18;95106.22;;;18.46;100.00
10706;BME280;5404;42.656;23.336;2022-07-23T03:14:44;95118.69;;;18.51;100.00
10706;BME280;5404;42.656;23.336;2022-07-23T03:17:09;95122.63;;;18.53;100.00
10706;BME280;5404;42.656;23.336;2022-07-23T03:19:35;95116.78;;;18.51;100.00
10706;BME280;5404;42.656;23.336;2022-07-23T03:22:02;95113.97;;;18.48;100.00
10706;BME280;5404;42.656;23.336;2022-07-23T03:24:27;95121.72;;;18.49;100.00
10706;BME280;5404;42.656;23.336;2022-07-23T03:27:12;95126.66;;;18.47;100.00
10706;BME280;5404;42.656;23.336;2022-07-23T03:29:38;95133.31;;;18.50;100.00
10706;BME280;5404;42.656;23.336;2022-07-23T03:32:04;95123.19;;;18.47;100.00
10706;BME280;5404;42.656;23.336;2022-07-23T03:34:29;95131.97;;;18.56;100.00
10706;BME280;5404;42.656;23.336;2022-07-23T03:36:55;95130.28;;;18.51;100.00
10706;BME280;5404;42.656;23.336;2022-07-23T03:39:20;95121.50;;;18.42;100.00
10706;BME280;5404;42.656;23.336;2022-07-23T03:41:46;95123.31;;;18.50;100.00
10706;BME280;5404;42.656;23.336;2022-07-23T03:44:11;95135.00;;;18.67;100.00
10706;BME280;5404;42.656;23.336;2022-07-23T03:46:37;95131.63;;;18.70;100.00
10706;BME280;5404;42.656;23.336;2022-07-23T03:49:02;95145.47;;;18.80;100.00
10706;BME280;5404;42.656;23.336;2022-07-23T03:51:28;95136.91;;;18.90;100.00
10706;BME280;5404;42.656;23.336;2022-07-23T03:53:53;95131.84;;;19.01;100.00
10706;BME280;5404;42.656;23.336;2022-07-23T03:56:19;95129.13;;;19.13;100.00
10706;BME280;5404;42.656;23.336;2022-07-23T03:58:45;95138.59;;;19.31;100.00
10706;BME280;5404;42.656;23.336;2022-07-23T04:01:11;95131.16;;;19.40;100.00
10706;BME280;5404;42.656;23.336;2022-07-23T04:03:37;95135.94;;;19.58;100.00
10706;BME280;5404;42.656;23.336;2022-07-23T04:06:02;95136.34;;;19.73;100.00
10706;BME280;5404;42.656;23.336;2022-07-23T04:08:28;95124.72;;;19.84;100.00
10706;BME280;5404;42.656;23.336;2022-07-23T04:10:53;95133.06;;;19.79;100.00
10706;BME280;5404;42.656;23.336;2022-07-23T04:13:19;95133.47;;;19.93;100.00
10706;BME280;5404;42.656;23.336;2022-07-23T04:15:44;95128.09;;;20.09;100.00
10706;BME280;5404;42.656;23.336;2022-07-23T04:18:10;95130.66;;;20.17;100.00
10706;BME280;5404;42.656;23.336;2022-07-23T04:20:35;95129.88;;;20.17;100.00
10706;BME280;5404;42.656;23.336;2022-07-23T04:23:01;95130.75;;;20.21;100.00
10706;BME280;5404;42.656;23.336;2022-07-23T04:25:26;95130.50;;;20.26;100.00
10706;BME280;5404;42.656;23.336;2022-07-23T04:27:52;95124.84;;;20.31;100.00
10706;BME280;5404;42.656;23.336;2022-07-23T04:30:17;95134.09;;;20.45;100.00
10706;BME280;5404;42.656;23.336;2022-07-23T04:32:43;95106.84;;;20.38;100.00
10706;BME280;5404;42.656;23.336;2022-07-23T04:35:08;95125.53;;;20.59;100.00
10706;BME280;5404;42.656;23.336;2022-07-23T04:37:34;95117.25;;;20.67;100.00
10706;BME280;5404;42.656;23.336;2022-07-23T04:39:59;95140.38;;;20.96;100.00
10706;BME280;5404;42.656;23.336;2022-07-23T04:42:25;95133.66;;;21.06;100.00
10706;BME280;5404;42.656;23.336;2022-07-23T04:44:50;95126.56;;;21.17;100.00
10706;BME280;5404;42.656;23.336;2022-07-23T04:47:15;95112.22;;;21.16;100.00
10706;BME280;5404;42.656;23.336;2022-07-23T04:49:41;95130.91;;;21.37;100.00
10706;BME280;5404;42.656;23.336;2022-07-23T04:52:06;95136.03;;;21.42;100.00
10706;BME280;5404;42.656;23.336;2022-07-23T04:54:32;95141.34;;;21.54;100.00
10706;BME280;5404;42.656;23.336;2022-07-23T04:56:57;95138.69;;;21.57;100.00
10706;BME280;5404;42.656;23.336;2022-07-23T04:59:23;95144.72;;;21.66;100.00
10706;BME280;5404;42.656;23.336;2022-07-23T05:01:48;95149.69;;;21.64;100.00
10706;BME280;5404;42.656;23.336;2022-07-23T05:04:14;95139.78;;;21.72;100.00
10706;BME280;5404;42.656;23.336;2022-07-23T05:06:39;95135.31;;;21.79;100.00
10706;BME280;5404;42.656;23.336;2022-07-23T05:09:04;95132.81;;;21.90;100.00
10706;BME280;5404;42.656;23.336;2022-07-23T05:11:30;95123.56;;;21.91;100.00
10706;BME280;5404;42.656;23.336;2022-07-23T05:13:56;95142.56;;;22.14;100.00
10706;BME280;5404;42.656;23.336;2022-07-23T05:16:21;95138.75;;;22.15;100.00
10706;BME280;5404;42.656;23.336;2022-07-23T05:18:47;95138.09;;;22.21;100.00
10706;BME280;5404;42.656;23.336;2022-07-23T05:21:12;95125.06;;;22.30;100.00
10706;BME280;5404;42.656;23.336;2022-07-23T05:23:38;95135.81;;;22.46;100.00
10706;BME280;5404;42.656;23.336;2022-07-23T05:26:03;95143.78;;;22.54;100.00
10706;BME280;5404;42.656;23.336;2022-07-23T05:28:29;95147.75;;;22.60;100.00
10706;BME280;5404;42.656;23.336;2022-07-23T05:30:54;95135.06;;;22.68;100.00
10706;BME280;5404;42.656;23.336;2022-07-23T05:33:20;95139.91;;;22.55;100.00
10706;BME280;5404;42.656;23.336;2022-07-23T05:35:45;95145.38;;;22.59;100.00
10706;BME280;5404;42.656;23.336;2022-07-23T05:38:10;95140.03;;;22.62;100.00
10706;BME280;5404;42.656;23.336;2022-07-23T05:40:36;95138.41;;;22.80;100.00
10706;BME280;5404;42.656;23.336;2022-07-23T05:43:02;95131.63;;;22.93;100.00
10706;BME280;5404;42.656;23.336;2022-07-23T05:45:27;95132.72;;;23.15;100.00
10706;BME280;5404;42.656;23.336;2022-07-23T05:47:52;95136.84;;;23.28;100.00
10706;BME280;5404;42.656;23.336;2022-07-23T05:50:18;95112.00;;;23.30;100.00
10706;BME280;5404;42.656;23.336;2022-07-23T05:52:43;95125.16;;;23.54;100.00
10706;BME280;5404;42.656;23.336;2022-07-23T05:55:10;95137.28;;;23.60;100.00
10706;BME280;5404;42.656;23.336;2022-07-23T05:57:37;95127.00;;;23.76;100.00
10706;BME280;5404;42.656;23.336;2022-07-23T06:00:05;95129.41;;;23.81;100.00
10706;BME280;5404;42.656;23.336;2022-07-23T06:02:31;95136.00;;;23.80;100.00
10706;BME280;5404;42.656;23.336;2022-07-23T06:04:56;95136.34;;;23.75;100.00
10706;BME280;5404;42.656;23.336;2022-07-23T06:07:22;95127.56;;;23.88;100.00
10706;BME280;5404;42.656;23.336;2022-07-23T06:09:47;95123.28;;;23.91;100.00
10706;BME280;5404;42.656;23.336;2022-07-23T06:12:15;95124.31;;;23.79;100.00
10706;BME280;5404;42.656;23.336;2022-07-23T06:14:40;95125.59;;;23.89;100.00
10706;BME280;5404;42.656;23.336;2022-07-23T06:17:06;95100.81;;;23.94;100.00
10706;BME280;5404;42.656;23.336;2022-07-23T06:19:31;95117.84;;;24.20;100.00
10706;BME280;5404;42.656;23.336;2022-07-23T06:21:56;95119.13;;;24.30;100.00
10706;BME280;5404;42.656;23.336;2022-07-23T06:24:22;95127.03;;;24.46;100.00
10706;BME280;5404;42.656;23.336;2022-07-23T06:26:47;95125.63;;;24.59;100.00
10706;BME280;5404;42.656;23.336;2022-07-23T06:29:13;95122.56;;;24.64;100.00
10706;BME280;5404;42.656;23.336;2022-07-23T06:31:38;95114.47;;;24.71;100.00
10706;BME280;5404;42.656;23.336;2022-07-23T06:34:04;95115.69;;;24.77;100.00
10706;BME280;5404;42.656;23.336;2022-07-23T06:36:29;95108.41;;;24.91;100.00
10706;BME280;5404;42.656;23.336;2022-07-23T06:38:55;95108.06;;;24.96;100.00
10706;BME280;5404;42.656;23.336;2022-07-23T06:41:20;95112.88;;;25.13;100.00
10706;BME280;5404;42.656;23.336;2022-07-23T06:43:48;95116.81;;;25.19;100.00
10706;BME280;5404;42.656;23.336;2022-07-23T06:46:13;95122.66;;;25.21;100.00
10706;BME280;5404;42.656;23.336;2022-07-23T06:48:39;95120.00;;;25.32;100.00
10706;BME280;5404;42.656;23.336;2022-07-23T06:51:04;95116.25;;;25.51;100.00
10706;BME280;5404;42.656;23.336;2022-07-23T06:53:30;95115.13;;;25.59;100.00
10706;BME280;5404;42.656;23.336;2022-07-23T06:55:55;95105.75;;;25.53;100.00
10706;BME280;5404;42.656;23.336;2022-07-23T06:58:21;95111.72;;;25.79;100.00
10706;BME280;5404;42.656;23.336;2022-07-23T07:00:47;95119.59;;;25.95;100.00
10706;BME280;5404;42.656;23.336;2022-07-23T07:03:12;95114.59;;;26.04;100.00
10706;BME280;5404;42.656;23.336;2022-07-23T07:05:38;95108.00;;;26.15;100.00
10706;BME280;5404;42.656;23.336;2022-07-23T07:08:05;95117.38;;;26.25;100.00
10706;BME280;5404;42.656;23.336;2022-07-23T07:10:31;95115.81;;;26.17;98.93
10706;BME280;5404;42.656;23.336;2022-07-23T07:12:56;95104.06;;;26.09;96.24
10706;BME280;5404;42.656;23.336;2022-07-23T07:15:22;95095.50;;;26.14;100.00
10706;BME280;5404;42.656;23.336;2022-07-23T07:17:47;95108.03;;;26.40;99.07
10706;BME280;5404;42.656;23.336;2022-07-23T07:20:13;95102.22;;;26.45;91.79
10706;BME280;5404;42.656;23.336;2022-07-23T07:22:39;95099.50;;;26.66;93.48
10706;BME280;5404;42.656;23.336;2022-07-23T07:25:05;95097.22;;;26.86;92.86
10706;BME280;5404;42.656;23.336;2022-07-23T07:27:31;95095.63;;;26.92;92.74
10706;BME280;5404;42.656;23.336;2022-07-23T07:29:56;95102.69;;;26.96;90.79
10706;BME280;5404;42.656;23.336;2022-07-23T07:32:22;95094.09;;;27.08;88.89
10706;BME280;5404;42.656;23.336;2022-07-23T07:34:47;95078.41;;;27.23;89.14
10706;BME280;5404;42.656;23.336;2022-07-23T07:37:13;95083.88;;;27.23;87.90
10706;BME280;5404;42.656;23.336;2022-07-23T07:39:38;95083.13;;;27.22;82.44
10706;BME280;5404;42.656;23.336;2022-07-23T07:42:04;95089.34;;;27.26;81.17
10706;BME280;5404;42.656;23.336;2022-07-23T07:44:30;95088.59;;;27.36;84.08
10706;BME280;5404;42.656;23.336;2022-07-23T07:46:55;95079.59;;;27.39;84.99
10706;BME280;5404;42.656;23.336;2022-07-23T07:49:20;95084.69;;;27.44;84.57
10706;BME280;5404;42.656;23.336;2022-07-23T07:51:46;95079.19;;;27.51;85.99
10706;BME280;5404;42.656;23.336;2022-07-23T07:54:12;95085.34;;;27.77;85.96
10706;BME280;5404;42.656;23.336;2022-07-23T07:56:38;95081.41;;;27.85;82.75
10706;BME280;5404;42.656;23.336;2022-07-23T07:59:03;95077.97;;;27.67;81.41
10706;BME280;5404;42.656;23.336;2022-07-23T08:01:29;95075.94;;;27.92;84.06
10706;BME280;5404;42.656;23.336;2022-07-23T08:03:54;95065.72;;;27.99;83.67
10706;BME280;5404;42.656;23.336;2022-07-23T08:06:20;95077.00;;;28.15;80.37
10706;BME280;5404;42.656;23.336;2022-07-23T08:08:45;95073.44;;;28.25;79.95
10706;BME280;5404;42.656;23.336;2022-07-23T08:11:11;95072.91;;;28.48;78.75
10706;BME280;5404;42.656;23.336;2022-07-23T08:13:36;95070.94;;;28.52;75.20
10706;BME280;5404;42.656;23.336;2022-07-23T08:16:02;95062.22;;;28.64;74.79
10706;BME280;5404;42.656;23.336;2022-07-23T08:18:27;95073.25;;;28.57;76.06
10706;BME280;5404;42.656;23.336;2022-07-23T08:20:53;95071.22;;;28.68;77.31
10706;BME280;5404;42.656;23.336;2022-07-23T08:23:18;95071.50;;;28.84;74.88
10706;BME280;5404;42.656;23.336;2022-07-23T08:25:45;95068.16;;;29.03;74.58
10706;BME280;5404;42.656;23.336;2022-07-23T08:28:12;95062.56;;;29.21;74.50
10706;BME280;5404;42.656;23.336;2022-07-23T08:30:39;95072.69;;;29.27;72.71
10706;BME280;5404;42.656;23.336;2022-07-23T08:33:07;95060.13;;;29.30;72.89
10706;BME280;5404;42.656;23.336;2022-07-23T08:35:34;95068.22;;;29.44;72.74
10706;BME280;5404;42.656;23.336;2022-07-23T08:38:02;95072.41;;;29.55;71.59
10706;BME280;5404;42.656;23.336;2022-07-23T08:40:34;95068.09;;;29.92;70.34
10706;BME280;5404;42.656;23.336;2022-07-23T08:43:06;95066.47;;;29.98;70.04
10706;BME280;5404;42.656;23.336;2022-07-23T08:45:39;95069.84;;;30.09;68.07
10706;BME280;5404;42.656;23.336;2022-07-23T08:48:12;95063.38;;;30.22;67.60
10706;BME280;5404;42.656;23.336;2022-07-23T08:50:42;95057.09;;;30.25;68.63
10706;BME280;5404;42.656;23.336;2022-07-23T08:53:08;95054.69;;;30.54;63.80
10706;BME280;5404;42.656;23.336;2022-07-23T08:55:34;95057.72;;;30.63;62.44
10706;BME280;5404;42.656;23.336;2022-07-23T08:58:00;95055.88;;;30.53;62.50
10706;BME280;5404;42.656;23.336;2022-07-23T09:00:26;95051.13;;;30.83;63.41
10706;BME280;5404;42.656;23.336;2022-07-23T09:02:52;95045.91;;;31.12;61.98
10706;BME280;5404;42.656;23.336;2022-07-23T09:05:18;95047.16;;;31.31;57.19
10706;BME280;5404;42.656;23.336;2022-07-23T09:13:52;95054.03;;;31.85;54.60
10706;BME280;5404;42.656;23.336;2022-07-23T09:16:29;95046.50;;;31.85;53.04
10706;BME280;5404;42.656;23.336;2022-07-23T09:18:57;95044.78;;;32.66;50.44
10706;BME280;5404;42.656;23.336;2022-07-23T09:21:25;95048.78;;;34.44;45.67
10706;BME280;5404;42.656;23.336;2022-07-23T09:24:12;95053.25;;;37.38;36.31
10706;BME280;5404;42.656;23.336;2022-07-23T09:26:48;95050.63;;;39.50;32.19
10706;BME280;5404;42.656;23.336;2022-07-23T09:29:22;95049.44;;;41.61;28.22
10706;BME280;5404;42.656;23.336;2022-07-23T09:32:03;95051.81;;;41.88;26.26
10706;BME280;5404;42.656;23.336;2022-07-23T09:34:35;95045.38;;;42.79;25.40
10706;BME280;5404;42.656;23.336;2022-07-23T09:37:17;95048.31;;;41.73;25.27
10706;BME280;5404;42.656;23.336;2022-07-23T09:39:45;95043.84;;;42.01;24.81
10706;BME280;5404;42.656;23.336;2022-07-23T09:42:19;95041.34;;;42.86;23.36
10706;BME280;5404;42.656;23.336;2022-07-23T09:44:50;95036.72;;;42.26;23.38
10706;BME280;5404;42.656;23.336;2022-07-23T09:47:17;95030.84;;;44.24;22.31
10706;BME280;5404;42.656;23.336;2022-07-23T09:50:06;95033.06;;;45.69;20.75
10706;BME280;5404;42.656;23.336;2022-07-23T09:52:45;95029.31;;;45.39;19.60
10706;BME280;5404;42.656;23.336;2022-07-23T09:55:13;95033.97;;;46.05;18.20
10706;BME280;5404;42.656;23.336;2022-07-23T09:57:40;95024.19;;;46.11;17.63
10706;BME280;5404;42.656;23.336;2022-07-23T10:00:08;95022.19;;;46.01;18.07
10706;BME280;5404;42.656;23.336;2022-07-23T10:02:35;95032.44;;;46.44;18.02
10706;BME280;5404;42.656;23.336;2022-07-23T10:05:04;95026.53;;;47.85;16.98
10706;BME280;5404;42.656;23.336;2022-07-23T10:07:37;95021.63;;;48.60;16.42
10706;BME280;5404;42.656;23.336;2022-07-23T10:10:04;95020.06;;;48.27;15.88
10706;BME280;5404;42.656;23.336;2022-07-23T10:12:30;95013.56;;;47.95;16.22
10706;BME280;5404;42.656;23.336;2022-07-23T10:14:57;95012.25;;;49.15;16.36
10706;BME280;5404;42.656;23.336;2022-07-23T10:17:23;95012.34;;;49.09;15.58
10706;BME280;5404;42.656;23.336;2022-07-23T10:19:48;95011.06;;;49.24;15.87
10706;BME280;5404;42.656;23.336;2022-07-23T10:22:19;94991.22;;;49.89;15.44
10706;BME280;5404;42.656;23.336;2022-07-23T10:35:38;94997.75;;;49.19;15.22
10706;BME280;5404;42.656;23.336;2022-07-23T10:38:15;94993.72;;;50.73;13.62
10706;BME280;5404;42.656;23.336;2022-07-23T10:40:58;94978.84;;;49.66;14.05
10706;BME280;5404;42.656;23.336;2022-07-23T10:43:24;94985.09;;;48.93;14.94
10706;BME280;5404;42.656;23.336;2022-07-23T10:45:50;94983.19;;;49.67;14.32
10706;BME280;5404;42.656;23.336;2022-07-23T10:48:24;94976.78;;;48.32;14.62
10706;BME280;5404;42.656;23.336;2022-07-23T10:51:13;94972.59;;;45.81;15.50
10706;BME280;5404;42.656;23.336;2022-07-23T10:59:03;94964.31;;;45.37;14.74
10706;BME280;5404;42.656;23.336;2022-07-23T11:01:38;94956.00;;;42.92;15.88
10706;BME280;5404;42.656;23.336;2022-07-23T11:04:05;94953.16;;;43.29;15.70
10706;BME280;5404;42.656;23.336;2022-07-23T11:15:05;94938.16;;;43.43;16.36
10706;BME280;5404;42.656;23.336;2022-07-23T11:17:35;94931.44;;;43.99;15.65
10706;BME280;5404;42.656;23.336;2022-07-23T11:22:47;94925.13;;;44.37;15.74
10706;BME280;5404;42.656;23.336;2022-07-23T11:25:29;94921.66;;;45.22;15.07
10706;BME280;5404;42.656;23.336;2022-07-23T11:27:55;94924.50;;;45.11;15.15
10706;BME280;5404;42.656;23.336;2022-07-23T11:32:54;94906.88;;;41.78;16.71
10706;BME280;5404;42.656;23.336;2022-07-23T11:35:22;94913.59;;;40.16;17.51
10706;BME280;5404;42.656;23.336;2022-07-23T11:37:48;94916.47;;;40.07;18.20
10706;BME280;5404;42.656;23.336;2022-07-23T11:40:16;94908.16;;;39.54;18.60
10706;BME280;5404;42.656;23.336;2022-07-23T11:45:18;94905.53;;;38.65;18.76
10706;BME280;5404;42.656;23.336;2022-07-23T11:47:43;94902.91;;;38.29;18.53
10706;BME280;5404;42.656;23.336;2022-07-23T11:50:09;94906.00;;;37.71;18.96
10706;BME280;5404;42.656;23.336;2022-07-23T11:52:34;94900.94;;;37.43;18.52
10706;BME280;5404;42.656;23.336;2022-07-23T11:55:06;94897.81;;;37.68;19.09
10706;BME280;5404;42.656;23.336;2022-07-23T11:57:40;94890.25;;;37.68;19.12
10706;BME280;5404;42.656;23.336;2022-07-23T12:02:43;94886.84;;;37.55;19.64
10706;BME280;5404;42.656;23.336;2022-07-23T12:05:23;94882.94;;;37.71;19.99
10706;BME280;5404;42.656;23.336;2022-07-23T12:07:51;94886.19;;;37.87;20.25
10706;BME280;5404;42.656;23.336;2022-07-23T12:10:29;94870.59;;;38.22;19.90
10706;BME280;5404;42.656;23.336;2022-07-23T12:13:00;94880.88;;;38.16;19.48
10706;BME280;5404;42.656;23.336;2022-07-23T12:15:35;94868.00;;;37.50;18.81
10706;BME280;5404;42.656;23.336;2022-07-23T12:18:04;94874.84;;;37.22;19.06
10706;BME280;5404;42.656;23.336;2022-07-23T12:20:36;94876.38;;;37.23;18.92
10706;BME280;5404;42.656;23.336;2022-07-23T12:23:05;94870.94;;;37.47;18.88
10706;BME280;5404;42.656;23.336;2022-07-23T12:25:33;94873.09;;;37.61;19.03
10706;BME280;5404;42.656;23.336;2022-07-23T12:30:48;94869.66;;;37.84;18.12
10706;BME280;5404;42.656;23.336;2022-07-23T12:33:26;94858.88;;;37.59;17.16
10706;BME280;5404;42.656;23.336;2022-07-23T12:35:54;94871.25;;;37.67;16.55
10706;BME280;5404;42.656;23.336;2022-07-23T12:38:22;94872.63;;;37.53;17.17
10706;BME280;5404;42.656;23.336;2022-07-23T12:40:52;94860.59;;;37.56;16.96
10706;BME280;5404;42.656;23.336;2022-07-23T12:45:57;94857.06;;;37.37;16.87
10706;BME280;5404;42.656;23.336;2022-07-23T12:48:28;94847.00;;;37.58;17.31
10706;BME280;5404;42.656;23.336;2022-07-23T12:50:58;94847.59;;;37.71;17.35
10706;BME280;5404;42.656;23.336;2022-07-23T12:53:40;94847.84;;;37.91;17.00
10706;BME280;5404;42.656;23.336;2022-07-23T12:56:14;94847.66;;;37.95;17.22
10706;BME280;5404;42.656;23.336;2022-07-23T13:01:09;94851.31;;;37.68;16.23
10706;BME280;5404;42.656;23.336;2022-07-23T13:03:41;94842.25;;;37.41;16.65
10706;BME280;5404;42.656;23.336;2022-07-23T13:06:09;94840.97;;;37.60;16.27
10706;BME280;5404;42.656;23.336;2022-07-23T13:08:36;94835.84;;;37.67;16.05
10706;BME280;5404;42.656;23.336;2022-07-23T13:11:03;94837.69;;;37.79;16.20
10706;BME280;5404;42.656;23.336;2022-07-23T13:13:31;94846.50;;;38.10;16.58
10706;BME280;5404;42.656;23.336;2022-07-23T13:15:58;94832.09;;;37.88;16.65
10706;BME280;5404;42.656;23.336;2022-07-23T13:18:24;94838.09;;;37.96;16.59
10706;BME280;5404;42.656;23.336;2022-07-23T13:20:50;94808.03;;;38.09;16.74
10706;BME280;5404;42.656;23.336;2022-07-23T13:23:17;94837.03;;;38.49;16.58
10706;BME280;5404;42.656;23.336;2022-07-23T13:25:42;94826.47;;;38.39;16.53
10706;BME280;5404;42.656;23.336;2022-07-23T13:28:08;94831.38;;;38.68;16.69
10706;BME280;5404;42.656;23.336;2022-07-23T13:30:34;94832.38;;;38.32;16.26
10706;BME280;5404;42.656;23.336;2022-07-23T13:33:01;94825.41;;;38.60;16.50
10706;BME280;5404;42.656;23.336;2022-07-23T13:35:27;94819.59;;;38.87;16.93
10706;BME280;5404;42.656;23.336;2022-07-23T13:37:52;94819.34;;;38.62;16.70
10706;BME280;5404;42.656;23.336;2022-07-23T13:40:18;94816.19;;;38.69;16.35
10706;BME280;5404;42.656;23.336;2022-07-23T13:42:43;94815.97;;;38.58;16.15